createdAt,value
2019-02-10T00:00:23.181Z,89.75
2019-02-10T00:01:23.128Z,90.14
2019-02-10T00:02:23.101Z,89.66
2019-02-10T00:03:23.023Z,90.23
2019-02-10T00:04:22.971Z,89.47
2019-02-10T00:05:22.920Z,90.14
2019-02-10T00:06:24.693Z,89.85
2019-02-10T00:07:22.855Z,89.47
2019-02-10T00:08:22.756Z,90.42
2019-02-10T00:09:22.701Z,90.23
2019-02-10T00:10:22.646Z,90.42
2019-02-10T00:11:22.593Z,90.14
2019-02-10T00:12:22.571Z,90.23
2019-02-10T00:13:22.505Z,90.04
2019-02-10T00:14:22.430Z,90.52
2019-02-10T00:15:22.382Z,90.33
2019-02-10T00:16:22.326Z,90.04
2019-02-10T00:17:22.294Z,90.04
2019-02-10T00:18:22.218Z,90.33
2019-02-10T00:19:22.155Z,90.80
2019-02-10T00:20:22.109Z,90.61
2019-02-10T00:21:22.061Z,90.80
2019-02-10T00:22:22.021Z,90.70
2019-02-10T00:23:21.951Z,90.80
2019-02-10T00:24:21.899Z,90.89
2019-02-10T00:25:21.862Z,90.70
2019-02-10T00:26:21.786Z,91.08
2019-02-10T00:27:21.756Z,90.80
2019-02-10T00:28:21.683Z,90.61
2019-02-10T00:29:21.627Z,90.61
2019-02-10T00:30:21.565Z,90.52
2019-02-10T00:31:21.515Z,90.61
2019-02-10T00:32:21.496Z,90.52
2019-02-10T00:33:21.418Z,90.52
2019-02-10T00:34:21.359Z,90.33
2019-02-10T00:35:21.317Z,90.89
2019-02-10T00:36:21.269Z,90.99
2019-02-10T00:37:21.233Z,90.80
2019-02-10T00:38:21.145Z,90.66
2019-02-10T00:39:21.091Z,91.47
2019-02-10T00:40:21.024Z,90.42
2019-02-10T00:41:20.988Z,90.89
2019-02-10T00:42:20.961Z,90.61
2019-02-10T00:43:20.890Z,90.70
2019-02-10T00:44:20.823Z,90.80
2019-02-10T00:45:20.766Z,90.56
2019-02-10T00:46:20.705Z,90.70
2019-02-10T00:47:20.656Z,91.04
2019-02-10T00:48:20.648Z,90.80
2019-02-10T00:49:20.541Z,90.70
2019-02-10T00:50:20.494Z,90.89
2019-02-10T00:51:20.451Z,90.61
2019-02-10T00:52:20.386Z,91.08
2019-02-10T00:53:20.359Z,90.61
2019-02-10T00:54:20.279Z,90.99
2019-02-10T00:55:20.232Z,90.52
2019-02-10T00:56:20.185Z,90.89
2019-02-10T00:57:20.123Z,90.23
2019-02-10T00:58:20.103Z,90.42
2019-02-10T00:59:19.998Z,90.70
2019-02-10T01:00:19.958Z,90.61
2019-02-10T01:01:19.921Z,90.42
2019-02-10T01:02:19.852Z,90.80
2019-02-10T01:03:19.816Z,90.89
2019-02-10T01:04:19.740Z,90.61
2019-02-10T01:05:19.679Z,90.80
2019-02-10T01:06:19.623Z,90.42
2019-02-10T01:07:19.568Z,90.80
2019-02-10T01:08:19.548Z,89.94
2019-02-10T01:09:19.470Z,90.70
2019-02-10T01:10:19.413Z,90.61
2019-02-10T01:11:19.391Z,90.61
2019-02-10T01:12:19.308Z,90.61
2019-02-10T01:13:19.277Z,90.80
2019-02-10T01:14:19.195Z,90.89
2019-02-10T01:15:19.148Z,90.70
2019-02-10T01:16:19.085Z,90.61
2019-02-10T01:17:19.037Z,90.80
2019-02-10T01:18:19.006Z,90.80
2019-02-10T01:19:18.930Z,90.42
2019-02-10T01:20:18.898Z,90.14
2019-02-10T01:21:18.816Z,90.70
2019-02-10T01:22:18.775Z,90.80
2019-02-10T01:23:18.735Z,90.61
2019-02-10T01:24:18.665Z,90.89
2019-02-10T01:25:18.608Z,90.52
2019-02-10T01:26:18.544Z,90.80
2019-02-10T01:27:18.496Z,90.42
2019-02-10T01:28:18.473Z,90.70
2019-02-10T01:29:18.391Z,91.04
2019-02-10T01:30:18.327Z,90.89
2019-02-10T01:31:18.272Z,91.52
2019-02-10T01:32:18.235Z,90.75
2019-02-10T01:33:18.195Z,91.08
2019-02-10T01:34:18.119Z,90.89
2019-02-10T01:35:18.054Z,90.89
2019-02-10T01:36:18.009Z,90.70
2019-02-10T01:37:17.950Z,90.99
2019-02-10T01:38:17.957Z,90.42
2019-02-10T01:39:17.842Z,90.61
2019-02-10T01:40:17.795Z,90.80
2019-02-10T01:41:17.729Z,90.80
2019-02-10T01:42:17.680Z,90.80
2019-02-10T01:43:17.629Z,90.70
2019-02-10T01:44:17.606Z,90.61
2019-02-10T01:45:17.532Z,90.61
2019-02-10T01:46:17.461Z,90.80
2019-02-10T01:47:17.419Z,90.89
2019-02-10T01:48:17.358Z,90.70
2019-02-10T01:49:17.334Z,90.80
2019-02-10T01:50:17.246Z,91.13
2019-02-10T01:51:17.192Z,91.28
2019-02-10T01:52:17.147Z,90.75
2019-02-10T01:53:17.088Z,91.47
2019-02-10T01:54:17.102Z,91.37
2019-02-10T01:55:16.972Z,91.04
2019-02-10T01:56:16.927Z,91.08
2019-02-10T01:57:16.861Z,91.33
2019-02-10T01:58:16.817Z,91.33
2019-02-10T01:59:16.787Z,91.42
2019-02-10T02:00:16.703Z,91.37
2019-02-10T02:01:16.681Z,91.18
2019-02-10T02:02:16.602Z,91.08
2019-02-10T02:03:16.551Z,91.52
2019-02-10T02:04:16.517Z,91.13
2019-02-10T02:05:16.744Z,91.52
2019-02-10T02:06:16.383Z,91.42
2019-02-10T02:07:16.355Z,90.94
2019-02-10T02:08:16.276Z,91.42
2019-02-10T02:09:16.249Z,91.13
2019-02-10T02:10:16.170Z,91.33
2019-02-10T02:11:16.118Z,91.23
2019-02-10T02:12:16.059Z,91.13
2019-02-10T02:13:16.005Z,91.71
2019-02-10T02:14:15.980Z,91.13
2019-02-10T02:15:15.894Z,91.23
2019-02-10T02:16:15.838Z,91.71
2019-02-10T02:17:15.796Z,91.99
2019-02-10T02:18:15.732Z,91.33
2019-02-10T02:19:15.738Z,91.52
2019-02-10T02:20:15.618Z,91.89
2019-02-10T02:21:15.572Z,91.52
2019-02-10T02:22:15.514Z,91.80
2019-02-10T02:23:15.459Z,91.80
2019-02-10T02:24:15.442Z,91.71
2019-02-10T02:25:15.354Z,91.89
2019-02-10T02:26:15.339Z,91.99
2019-02-10T02:27:15.238Z,91.52
2019-02-10T02:28:15.189Z,91.71
2019-02-10T02:29:15.135Z,91.99
2019-02-10T02:30:15.133Z,92.27
2019-02-10T02:31:15.069Z,91.89
2019-02-10T02:32:14.975Z,91.71
2019-02-10T02:33:14.919Z,91.28
2019-02-10T02:34:14.869Z,91.42
2019-02-10T02:35:14.830Z,91.37
2019-02-10T02:36:14.765Z,91.04
2019-02-10T02:37:14.699Z,91.37
2019-02-10T02:38:14.668Z,91.08
2019-02-10T02:39:14.632Z,91.28
2019-02-10T02:40:14.578Z,90.80
2019-02-10T02:41:14.492Z,91.18
2019-02-10T02:42:14.435Z,91.08
2019-02-10T02:43:14.393Z,90.70
2019-02-10T02:44:14.326Z,91.18
2019-02-10T02:45:14.298Z,91.08
2019-02-10T02:46:14.217Z,90.99
2019-02-10T02:47:14.160Z,90.80
2019-02-10T02:48:14.124Z,91.08
2019-02-10T02:49:14.060Z,90.61
2019-02-10T02:50:14.059Z,90.61
2019-02-10T02:51:13.980Z,90.52
2019-02-10T02:52:13.897Z,90.89
2019-02-10T02:53:13.844Z,91.56
2019-02-10T02:54:13.779Z,90.70
2019-02-10T02:55:13.757Z,91.28
2019-02-10T02:56:13.675Z,90.70
2019-02-10T02:57:13.622Z,90.99
2019-02-10T02:58:13.572Z,91.37
2019-02-10T02:59:13.512Z,91.47
2019-02-10T03:00:13.481Z,90.70
2019-02-10T03:01:13.418Z,90.42
2019-02-10T03:02:13.352Z,90.89
2019-02-10T03:03:13.292Z,90.61
2019-02-10T03:04:13.250Z,90.42
2019-02-10T03:05:13.234Z,90.61
2019-02-10T03:06:13.136Z,90.70
2019-02-10T03:07:18.154Z,90.61
2019-02-10T03:08:13.030Z,90.61
2019-02-10T03:09:12.984Z,90.70
2019-02-10T03:10:12.939Z,90.42
2019-02-10T03:11:12.869Z,90.14
2019-02-10T03:12:12.816Z,90.89
2019-02-10T03:13:12.757Z,91.08
2019-02-10T03:14:12.715Z,91.28
2019-02-10T03:15:12.672Z,91.08
2019-02-10T03:16:12.594Z,90.89
2019-02-10T03:17:12.562Z,91.18
2019-02-10T03:18:12.507Z,91.56
2019-02-10T03:19:12.432Z,91.75
2019-02-10T03:20:12.406Z,92.13
2019-02-10T03:21:12.325Z,92.03
2019-02-10T03:22:12.359Z,92.22
2019-02-10T03:23:12.212Z,92.51
2019-02-10T03:24:12.194Z,92.51
2019-02-10T03:25:12.107Z,92.75
2019-02-10T03:26:12.075Z,92.46
2019-02-10T03:27:11.987Z,92.41
2019-02-10T03:28:11.962Z,92.37
2019-02-10T03:29:11.893Z,92.18
2019-02-10T03:30:11.862Z,92.85
2019-02-10T03:31:11.841Z,92.08
2019-02-10T03:32:11.728Z,92.46
2019-02-10T03:33:11.692Z,93.37
2019-02-10T03:34:11.625Z,92.46
2019-02-10T03:35:11.571Z,93.04
2019-02-10T03:36:11.547Z,92.08
2019-02-10T03:37:11.459Z,92.18
2019-02-10T03:38:11.408Z,93.41
2019-02-10T03:39:11.351Z,92.46
2019-02-10T03:40:11.295Z,92.18
2019-02-10T03:41:11.264Z,92.37
2019-02-10T03:42:11.199Z,93.13
2019-02-10T03:43:11.147Z,92.75
2019-02-10T03:44:11.083Z,92.94
2019-02-10T03:45:11.050Z,92.94
2019-02-10T03:46:10.990Z,93.23
2019-02-10T03:47:10.938Z,92.56
2019-02-10T03:48:10.863Z,92.66
2019-02-10T03:49:10.801Z,93.13
2019-02-10T03:50:10.758Z,93.51
2019-02-10T03:51:10.758Z,93.04
2019-02-10T03:52:10.663Z,92.66
2019-02-10T03:53:10.593Z,93.13
2019-02-10T03:54:10.533Z,92.75
2019-02-10T03:55:10.479Z,92.27
2019-02-10T03:56:10.456Z,92.37
2019-02-10T03:57:10.384Z,92.66
2019-02-10T03:58:10.333Z,92.56
2019-02-10T03:59:10.278Z,91.89
2019-02-10T04:00:10.210Z,92.46
2019-02-10T04:01:10.176Z,92.08
2019-02-10T04:02:10.101Z,92.08
2019-02-10T04:03:10.056Z,91.80
2019-02-10T04:04:09.986Z,91.80
2019-02-10T04:05:09.942Z,91.28
2019-02-10T04:06:09.909Z,90.99
2019-02-10T04:07:09.823Z,91.56
2019-02-10T04:08:09.796Z,90.61
2019-02-10T04:09:09.721Z,90.14
2019-02-10T04:10:09.662Z,90.52
2019-02-10T04:11:09.632Z,90.42
2019-02-10T04:12:09.555Z,90.33
2019-02-10T04:13:09.501Z,89.38
2019-02-10T04:14:09.470Z,89.09
2019-02-10T04:15:09.396Z,89.38
2019-02-10T04:16:09.367Z,88.71
2019-02-10T04:17:09.331Z,89.00
2019-02-10T04:18:09.227Z,88.90
2019-02-10T04:19:09.197Z,87.95
2019-02-10T04:20:09.123Z,87.67
2019-02-10T04:21:09.104Z,87.29
2019-02-10T04:22:09.044Z,87.57
2019-02-10T04:23:08.959Z,87.01
2019-02-10T04:24:08.913Z,87.48
2019-02-10T04:25:08.866Z,87.29
2019-02-10T04:26:08.796Z,86.91
2019-02-10T04:27:08.763Z,86.43
2019-02-10T04:28:08.692Z,88.15
2019-02-10T04:29:08.632Z,87.95
2019-02-10T04:30:09.304Z,87.38
2019-02-10T04:31:08.516Z,86.53
2019-02-10T04:32:08.491Z,86.72
2019-02-10T04:33:08.437Z,86.82
2019-02-10T04:34:08.348Z,87.38
2019-02-10T04:35:08.304Z,87.19
2019-02-10T04:36:08.271Z,86.63
2019-02-10T04:37:08.216Z,86.53
2019-02-10T04:38:08.151Z,86.34
2019-02-10T04:39:08.095Z,86.53
2019-02-10T04:40:08.036Z,85.86
2019-02-10T04:41:07.977Z,85.58
2019-02-10T04:42:07.944Z,85.58
2019-02-10T04:43:07.877Z,85.39
2019-02-10T04:44:07.807Z,85.20
2019-02-10T04:45:07.792Z,85.49
2019-02-10T04:46:07.717Z,85.11
2019-02-10T04:47:07.676Z,84.91
2019-02-10T04:48:07.593Z,85.01
2019-02-10T04:49:07.548Z,84.63
2019-02-10T04:50:07.481Z,84.44
2019-02-10T04:51:07.430Z,84.72
2019-02-10T04:52:07.395Z,84.16
2019-02-10T04:53:07.324Z,83.59
2019-02-10T04:54:07.256Z,84.34
2019-02-10T04:55:07.209Z,83.49
2019-02-10T04:56:07.149Z,83.11
2019-02-10T04:57:07.121Z,83.87
2019-02-10T04:58:07.038Z,83.49
2019-02-10T04:59:06.990Z,82.82
2019-02-10T05:00:06.934Z,83.20
2019-02-10T05:01:06.877Z,83.49
2019-02-10T05:02:06.871Z,83.20
2019-02-10T05:03:06.770Z,82.92
2019-02-10T05:04:06.710Z,82.35
2019-02-10T05:05:06.672Z,82.35
2019-02-10T05:06:06.627Z,83.49
2019-02-10T05:07:06.545Z,82.92
2019-02-10T05:08:06.518Z,83.01
2019-02-10T05:09:06.472Z,82.35
2019-02-10T05:10:06.380Z,82.64
2019-02-10T05:11:06.327Z,82.35
2019-02-10T05:12:06.278Z,81.87
2019-02-10T05:13:06.248Z,81.59
2019-02-10T05:14:06.176Z,81.78
2019-02-10T05:15:06.127Z,81.59
2019-02-10T05:16:06.054Z,81.87
2019-02-10T05:17:06.005Z,81.68
2019-02-10T05:18:05.964Z,81.21
2019-02-10T05:19:05.886Z,80.93
2019-02-10T05:20:05.831Z,80.93
2019-02-10T05:21:05.769Z,80.93
2019-02-10T05:22:05.722Z,80.55
2019-02-10T05:23:05.701Z,80.64
2019-02-10T05:24:05.611Z,80.07
2019-02-10T05:25:05.555Z,79.97
2019-02-10T05:26:05.505Z,80.07
2019-02-10T05:27:05.450Z,79.31
2019-02-10T05:28:05.416Z,79.22
2019-02-10T05:29:05.342Z,79.12
2019-02-10T05:30:05.287Z,78.83
2019-02-10T05:31:05.224Z,78.93
2019-02-10T05:32:05.169Z,78.93
2019-02-10T05:33:05.136Z,79.22
2019-02-10T05:34:05.065Z,79.03
2019-02-10T05:35:05.011Z,78.74
2019-02-10T05:36:04.958Z,78.74
2019-02-10T05:37:04.893Z,78.55
2019-02-10T05:38:04.889Z,78.74
2019-02-10T05:39:04.787Z,78.36
2019-02-10T05:40:04.731Z,78.17
2019-02-10T05:41:04.674Z,78.27
2019-02-10T05:42:04.616Z,78.17
2019-02-10T05:43:04.581Z,78.23
2019-02-10T05:44:04.534Z,77.89
2019-02-10T05:45:04.468Z,78.27
2019-02-10T05:46:04.403Z,78.32
2019-02-10T05:47:04.341Z,78.23
2019-02-10T05:48:04.317Z,78.17
2019-02-10T05:49:04.259Z,78.17
2019-02-10T05:50:04.181Z,78.64
2019-02-10T05:51:04.139Z,78.61
2019-02-10T05:52:04.075Z,78.61
2019-02-10T05:53:04.021Z,78.61
2019-02-10T05:54:03.981Z,78.03
2019-02-10T05:55:03.904Z,78.03
2019-02-10T05:56:03.845Z,78.13
2019-02-10T05:57:03.792Z,78.23
2019-02-10T05:58:03.742Z,78.13
2019-02-10T05:59:03.710Z,77.47
2019-02-10T06:00:03.652Z,78.03
2019-02-10T06:01:03.573Z,77.94
2019-02-10T06:02:03.518Z,77.84
2019-02-10T06:03:03.466Z,77.37
2019-02-10T06:04:03.436Z,77.51
2019-02-10T06:05:03.351Z,77.56
2019-02-10T06:06:03.303Z,77.37
2019-02-10T06:07:03.248Z,77.84
2019-02-10T06:08:03.193Z,77.56
2019-02-10T06:09:03.165Z,77.47
2019-02-10T06:10:03.081Z,77.37
2019-02-10T06:11:03.019Z,77.28
2019-02-10T06:12:02.971Z,77.09
2019-02-10T06:13:02.920Z,76.90
2019-02-10T06:14:02.883Z,77.09
2019-02-10T06:15:02.799Z,76.52
2019-02-10T06:16:02.745Z,76.90
2019-02-10T06:17:02.686Z,76.80
2019-02-10T06:18:02.637Z,76.90
2019-02-10T06:19:02.601Z,77.09
2019-02-10T06:20:02.526Z,77.18
2019-02-10T06:21:02.469Z,76.42
2019-02-10T06:22:02.414Z,76.04
2019-02-10T06:23:02.365Z,76.04
2019-02-10T06:24:02.340Z,75.95
2019-02-10T06:25:02.238Z,75.95
2019-02-10T06:26:02.187Z,76.32
2019-02-10T06:27:02.146Z,76.32
2019-02-10T06:28:02.085Z,76.42
2019-02-10T06:29:02.058Z,76.14
2019-02-10T06:30:01.974Z,76.52
2019-02-10T06:31:01.922Z,75.95
2019-02-10T06:32:01.872Z,75.85
2019-02-10T06:33:01.812Z,75.95
2019-02-10T06:34:01.808Z,76.14
2019-02-10T06:35:01.695Z,76.32
2019-02-10T06:36:01.650Z,76.04
2019-02-10T06:37:01.594Z,76.42
2019-02-10T06:38:01.531Z,76.32
2019-02-10T06:39:01.484Z,76.32
2019-02-10T06:40:01.454Z,76.04
2019-02-10T06:41:01.370Z,75.76
2019-02-10T06:42:01.309Z,76.23
2019-02-10T06:43:01.257Z,76.23
2019-02-10T06:44:01.202Z,76.32
2019-02-10T06:45:01.183Z,76.23
2019-02-10T06:46:01.098Z,76.23
2019-02-10T06:47:01.036Z,76.42
2019-02-10T06:48:00.981Z,76.32
2019-02-10T06:49:00.933Z,76.42
2019-02-10T06:50:00.899Z,76.32
2019-02-10T06:51:00.820Z,76.04
2019-02-10T06:52:00.767Z,76.04
2019-02-10T06:53:00.705Z,76.32
2019-02-10T06:54:00.649Z,76.42
2019-02-10T06:55:00.622Z,76.23
2019-02-10T06:56:00.586Z,76.32
2019-02-10T06:57:00.484Z,76.32
2019-02-10T06:58:00.431Z,76.23
2019-02-10T06:59:00.377Z,76.32
2019-02-10T07:00:00.347Z,75.95
2019-02-10T07:01:00.269Z,76.04
2019-02-10T07:02:00.216Z,76.04
2019-02-10T07:03:00.155Z,76.23
2019-02-10T07:04:00.126Z,75.85
2019-02-10T07:05:00.072Z,75.85
2019-02-10T07:05:59.989Z,76.04
2019-02-10T07:06:59.938Z,76.04
2019-02-10T07:07:59.874Z,76.32
2019-02-10T07:08:59.827Z,76.04
2019-02-10T07:09:59.798Z,76.42
2019-02-10T07:10:59.716Z,76.32
2019-02-10T07:11:59.671Z,75.76
2019-02-10T07:12:59.614Z,75.85
2019-02-10T07:13:59.552Z,75.85
2019-02-10T07:14:59.517Z,76.14
2019-02-10T07:15:59.459Z,75.95
2019-02-10T07:16:59.383Z,76.04
2019-02-10T07:17:59.324Z,76.14
2019-02-10T07:18:59.276Z,75.95
2019-02-10T07:19:59.210Z,76.04
2019-02-10T07:20:59.189Z,75.85
2019-02-10T07:21:59.107Z,76.04
2019-02-10T07:22:59.047Z,75.95
2019-02-10T07:23:58.999Z,75.95
2019-02-10T07:24:58.935Z,75.95
2019-02-10T07:25:58.912Z,75.76
2019-02-10T07:26:58.860Z,75.85
2019-02-10T07:27:58.789Z,75.85
2019-02-10T07:28:58.726Z,75.85
2019-02-10T07:29:58.663Z,75.95
2019-02-10T07:30:58.628Z,76.23
2019-02-10T07:31:58.546Z,75.57
2019-02-10T07:32:58.505Z,75.57
2019-02-10T07:33:58.676Z,75.57
2019-02-10T07:34:58.396Z,75.09
2019-02-10T07:35:58.366Z,75.09
2019-02-10T07:36:58.282Z,75.09
2019-02-10T07:37:58.231Z,74.90
2019-02-10T07:38:58.164Z,75.00
2019-02-10T07:39:58.112Z,75.19
2019-02-10T07:40:58.085Z,75.19
2019-02-10T07:41:58.002Z,75.28
2019-02-10T07:42:57.945Z,75.00
2019-02-10T07:43:57.882Z,74.62
2019-02-10T07:44:57.836Z,74.71
2019-02-10T07:45:57.805Z,74.90
2019-02-10T07:46:57.726Z,74.81
2019-02-10T07:47:57.678Z,74.43
2019-02-10T07:48:57.622Z,74.24
2019-02-10T07:49:57.564Z,74.24
2019-02-10T07:50:57.520Z,74.43
2019-02-10T07:51:57.456Z,74.33
2019-02-10T07:52:57.464Z,73.86
2019-02-10T07:53:57.352Z,74.15
2019-02-10T07:54:57.278Z,74.15
2019-02-10T07:55:57.258Z,73.86
2019-02-10T07:56:57.186Z,73.86
2019-02-10T07:57:57.111Z,73.67
2019-02-10T07:58:57.068Z,73.67
2019-02-10T07:59:57.012Z,73.76
2019-02-10T08:00:56.973Z,73.86
2019-02-10T08:01:56.898Z,73.86
2019-02-10T08:02:56.839Z,73.96
2019-02-10T08:03:56.784Z,73.96
2019-02-10T08:04:56.734Z,73.96
2019-02-10T08:05:56.696Z,73.57
2019-02-10T08:06:56.644Z,74.05
2019-02-10T08:07:56.572Z,74.05
2019-02-10T08:08:56.514Z,73.67
2019-02-10T08:09:56.453Z,74.05
2019-02-10T08:10:56.405Z,73.29
2019-02-10T08:11:56.367Z,73.29
2019-02-10T08:12:56.292Z,73.38
2019-02-10T08:13:56.246Z,73.29
2019-02-10T08:14:56.179Z,73.38
2019-02-10T08:15:56.125Z,73.57
2019-02-10T08:16:56.098Z,73.29
2019-02-10T08:17:56.024Z,73.29
2019-02-10T08:18:55.963Z,73.23
2019-02-10T08:19:55.906Z,72.66
2019-02-10T08:20:55.850Z,73.10
2019-02-10T08:21:55.813Z,72.66
2019-02-10T08:22:55.746Z,72.75
2019-02-10T08:23:55.699Z,72.75
2019-02-10T08:24:55.627Z,72.75
2019-02-10T08:25:55.575Z,72.95
2019-02-10T08:26:55.556Z,72.66
2019-02-10T08:27:55.465Z,72.75
2019-02-10T08:28:55.407Z,72.19
2019-02-10T08:29:55.355Z,72.00
2019-02-10T08:30:55.303Z,72.19
2019-02-10T08:31:55.267Z,72.28
2019-02-10T08:32:55.196Z,72.19
2019-02-10T08:33:55.135Z,72.38
2019-02-10T08:34:55.082Z,72.28
2019-02-10T08:35:55.040Z,72.47
2019-02-10T08:36:55.002Z,72.19
2019-02-10T08:37:54.914Z,72.19
2019-02-10T08:38:54.877Z,71.71
2019-02-10T08:39:54.809Z,71.81
2019-02-10T08:40:54.756Z,71.52
2019-02-10T08:41:54.693Z,71.81
2019-02-10T08:42:54.672Z,71.81
2019-02-10T08:43:54.587Z,72.00
2019-02-10T08:44:54.534Z,72.00
2019-02-10T08:45:54.503Z,71.62
2019-02-10T08:46:54.421Z,71.90
2019-02-10T08:47:54.408Z,71.71
2019-02-10T08:48:54.330Z,71.52
2019-02-10T08:49:54.258Z,71.52
2019-02-10T08:50:54.199Z,71.52
2019-02-10T08:51:54.152Z,71.04
2019-02-10T08:52:54.137Z,70.76
2019-02-10T08:53:54.046Z,70.95
2019-02-10T08:54:54.004Z,71.23
2019-02-10T08:55:53.936Z,71.23
2019-02-10T08:56:53.877Z,71.04
2019-02-10T08:57:53.846Z,71.14
2019-02-10T08:58:53.773Z,70.57
2019-02-10T08:59:53.722Z,70.67
2019-02-10T09:00:53.681Z,70.48
2019-02-10T09:01:54.271Z,70.48
2019-02-10T09:02:53.577Z,70.57
2019-02-10T09:03:53.504Z,69.91
2019-02-10T09:04:53.441Z,70.10
2019-02-10T09:05:53.380Z,69.91
2019-02-10T09:06:53.331Z,69.81
2019-02-10T09:07:53.302Z,70.19
2019-02-10T09:08:53.224Z,69.53
2019-02-10T09:09:53.160Z,69.43
2019-02-10T09:10:53.115Z,69.71
2019-02-10T09:11:53.058Z,69.66
2019-02-10T09:12:54.784Z,69.66
2019-02-10T09:13:52.949Z,69.34
2019-02-10T09:14:52.889Z,68.80
2019-02-10T09:15:52.839Z,69.09
2019-02-10T09:16:52.784Z,68.33
2019-02-10T09:17:52.762Z,68.52
2019-02-10T09:18:52.689Z,68.33
2019-02-10T09:19:52.620Z,67.85
2019-02-10T09:20:52.566Z,68.33
2019-02-10T09:21:52.510Z,68.42
2019-02-10T09:22:52.486Z,67.94
2019-02-10T09:23:52.407Z,67.76
2019-02-10T09:24:52.351Z,67.76
2019-02-10T09:25:52.289Z,67.76
2019-02-10T09:26:52.263Z,68.04
2019-02-10T09:27:52.209Z,68.13
2019-02-10T09:28:52.159Z,67.57
2019-02-10T09:29:52.073Z,67.28
2019-02-10T09:30:52.021Z,67.38
2019-02-10T09:31:51.969Z,67.28
2019-02-10T09:32:51.947Z,67.09
2019-02-10T09:33:51.852Z,66.61
2019-02-10T09:34:51.797Z,66.33
2019-02-10T09:35:51.750Z,66.74
2019-02-10T09:36:51.690Z,66.65
2019-02-10T09:37:51.637Z,66.84
2019-02-10T09:38:51.608Z,66.84
2019-02-10T09:39:51.530Z,66.36
2019-02-10T09:40:51.469Z,66.65
2019-02-10T09:41:51.423Z,66.65
2019-02-10T09:42:51.360Z,67.13
2019-02-10T09:43:51.345Z,66.94
2019-02-10T09:44:51.280Z,66.94
2019-02-10T09:45:51.200Z,66.74
2019-02-10T09:46:51.149Z,66.55
2019-02-10T09:47:51.101Z,66.74
2019-02-10T09:48:51.063Z,67.41
2019-02-10T09:49:51.000Z,67.50
2019-02-10T09:50:50.937Z,67.98
2019-02-10T09:51:50.887Z,68.07
2019-02-10T09:52:50.834Z,68.74
2019-02-10T09:53:50.790Z,68.87
2019-02-10T09:54:50.719Z,69.25
2019-02-10T09:55:50.666Z,69.63
2019-02-10T09:56:50.614Z,70.01
2019-02-10T09:57:50.552Z,69.63
2019-02-10T09:58:50.525Z,69.63
2019-02-10T09:59:50.442Z,69.63
2019-02-10T10:00:50.402Z,70.49
2019-02-10T10:01:50.337Z,70.58
2019-02-10T10:02:50.289Z,70.39
2019-02-10T10:03:50.280Z,70.49
2019-02-10T10:04:50.169Z,70.20
2019-02-10T10:05:50.125Z,70.68
2019-02-10T10:06:50.073Z,70.58
2019-02-10T10:07:50.013Z,71.06
2019-02-10T10:08:50.018Z,70.87
2019-02-10T10:09:49.926Z,71.15
2019-02-10T10:10:49.846Z,71.63
2019-02-10T10:11:49.798Z,71.34
2019-02-10T10:12:49.742Z,71.34
2019-02-10T10:13:49.722Z,71.72
2019-02-10T10:14:49.664Z,71.34
2019-02-10T10:15:49.580Z,72.11
2019-02-10T10:16:49.530Z,71.34
2019-02-10T10:17:49.469Z,71.63
2019-02-10T10:18:49.418Z,71.72
2019-02-10T10:19:49.388Z,73.25
2019-02-10T10:20:49.306Z,73.06
2019-02-10T10:21:49.256Z,73.19
2019-02-10T10:22:49.225Z,72.77
2019-02-10T10:23:49.180Z,73.72
2019-02-10T10:24:50.484Z,73.19
2019-02-10T10:25:49.057Z,73.10
2019-02-10T10:26:48.991Z,72.90
2019-02-10T10:27:48.939Z,72.90
2019-02-10T10:28:48.893Z,73.10
2019-02-10T10:29:48.856Z,72.90
2019-02-10T10:30:48.770Z,73.10
2019-02-10T10:31:48.725Z,73.57
2019-02-10T10:32:48.665Z,73.10
2019-02-10T10:33:48.608Z,73.10
2019-02-10T10:34:48.589Z,73.44
2019-02-10T10:35:48.499Z,74.14
2019-02-10T10:36:48.456Z,73.53
2019-02-10T10:37:48.389Z,74.14
2019-02-10T10:38:48.349Z,76.14
2019-02-10T10:39:48.315Z,75.28
2019-02-10T10:40:48.243Z,75.85
2019-02-10T10:41:48.185Z,75.57
2019-02-10T10:42:48.147Z,75.67
2019-02-10T10:43:48.073Z,74.90
2019-02-10T10:44:48.059Z,75.28
2019-02-10T10:45:47.968Z,75.85
2019-02-10T10:46:47.926Z,76.04
2019-02-10T10:47:47.871Z,75.95
2019-02-10T10:48:47.824Z,77.66
2019-02-10T10:49:47.778Z,77.56
2019-02-10T10:50:47.723Z,78.52
2019-02-10T10:51:47.644Z,78.52
2019-02-10T10:52:47.604Z,78.71
2019-02-10T10:53:47.548Z,79.94
2019-02-10T10:54:47.508Z,81.47
2019-02-10T10:55:47.437Z,79.85
2019-02-10T10:56:47.382Z,80.04
2019-02-10T10:57:47.328Z,80.52
2019-02-10T10:58:47.272Z,80.61
2019-02-10T10:59:47.255Z,80.71
2019-02-10T11:00:47.184Z,80.61
2019-02-10T11:01:47.120Z,80.52
2019-02-10T11:02:47.061Z,79.94
2019-02-10T11:03:47.066Z,81.09
2019-02-10T11:04:46.980Z,80.99
2019-02-10T11:05:46.918Z,83.28
2019-02-10T11:06:46.848Z,81.76
2019-02-10T11:07:46.813Z,82.61
2019-02-10T11:08:46.734Z,81.76
2019-02-10T11:09:46.701Z,81.47
2019-02-10T11:10:46.660Z,81.09
2019-02-10T11:11:46.583Z,82.04
2019-02-10T11:12:46.528Z,81.47
2019-02-10T11:13:46.498Z,81.95
2019-02-10T11:14:46.428Z,81.47
2019-02-10T11:15:46.406Z,80.80
2019-02-10T11:16:46.311Z,81.76
2019-02-10T11:17:46.275Z,80.90
2019-02-10T11:18:46.207Z,80.71
2019-02-10T11:19:46.155Z,80.80
2019-02-10T11:20:46.154Z,81.09
2019-02-10T11:21:46.044Z,80.23
2019-02-10T11:22:46.004Z,80.90
2019-02-10T11:23:45.943Z,79.85
2019-02-10T11:24:45.924Z,79.75
2019-02-10T11:25:45.852Z,80.23
2019-02-10T11:26:45.788Z,79.85
2019-02-10T11:27:45.723Z,79.19
2019-02-10T11:28:45.676Z,78.52
2019-02-10T11:29:45.614Z,79.47
2019-02-10T11:30:45.620Z,79.28
2019-02-10T11:31:45.529Z,78.80
2019-02-10T11:32:45.459Z,78.23
2019-02-10T11:33:45.410Z,78.71
2019-02-10T11:34:46.310Z,78.52
2019-02-10T11:35:45.323Z,78.80
2019-02-10T11:36:45.245Z,78.23
2019-02-10T11:37:45.191Z,79.28
2019-02-10T11:38:45.135Z,78.71
2019-02-10T11:39:45.078Z,78.23
2019-02-10T11:40:45.065Z,77.85
2019-02-10T11:41:44.979Z,78.23
2019-02-10T11:42:44.925Z,77.56
2019-02-10T11:43:44.861Z,77.66
2019-02-10T11:44:44.830Z,77.85
2019-02-10T11:45:44.790Z,77.00
2019-02-10T11:46:44.716Z,77.85
2019-02-10T11:47:44.673Z,78.14
2019-02-10T11:48:44.602Z,77.66
2019-02-10T11:49:44.554Z,77.00
2019-02-10T11:50:44.536Z,77.00
2019-02-10T11:51:44.438Z,77.00
2019-02-10T11:52:44.385Z,77.28
2019-02-10T11:53:44.330Z,78.23
2019-02-10T11:54:44.290Z,77.09
2019-02-10T11:55:44.251Z,76.81
2019-02-10T11:56:44.189Z,76.52
2019-02-10T11:57:44.122Z,77.28
2019-02-10T11:58:44.061Z,77.95
2019-02-10T11:59:44.010Z,77.66
2019-02-10T12:00:43.978Z,77.56
2019-02-10T12:01:43.904Z,77.09
2019-02-10T12:02:43.851Z,76.90
2019-02-10T12:03:43.803Z,77.28
2019-02-10T12:04:43.741Z,77.09
2019-02-10T12:05:43.715Z,77.09
2019-02-10T12:06:43.648Z,76.71
2019-02-10T12:07:43.589Z,76.90
2019-02-10T12:08:43.527Z,76.33
2019-02-10T12:09:51.362Z,76.81
2019-02-10T12:10:43.457Z,77.28
2019-02-10T12:11:43.373Z,76.71
2019-02-10T12:12:43.333Z,76.81
2019-02-10T12:13:43.265Z,77.37
2019-02-10T12:14:43.207Z,76.04
2019-02-10T12:15:43.177Z,76.04
2019-02-10T12:16:43.100Z,76.04
2019-02-10T12:17:43.069Z,76.04
2019-02-10T12:18:43.001Z,75.95
2019-02-10T12:19:42.950Z,76.42
2019-02-10T12:20:42.904Z,75.95
2019-02-10T12:21:42.855Z,75.85
2019-02-10T12:22:49.859Z,75.76
2019-02-10T12:23:42.733Z,75.85
2019-02-10T12:24:42.671Z,76.23
2019-02-10T12:25:42.629Z,75.76
2019-02-10T12:26:42.591Z,75.76
2019-02-10T12:27:42.513Z,75.67
2019-02-10T12:28:42.480Z,76.04
2019-02-10T12:29:42.415Z,75.28
2019-02-10T12:30:42.364Z,75.76
2019-02-10T12:31:42.328Z,76.23
2019-02-10T12:32:42.261Z,75.85
2019-02-10T12:33:42.202Z,75.95
2019-02-10T12:34:42.139Z,75.76
2019-02-10T12:35:42.080Z,75.85
2019-02-10T12:36:42.068Z,75.95
2019-02-10T12:37:41.986Z,75.19
2019-02-10T12:38:41.928Z,75.47
2019-02-10T12:39:41.872Z,74.90
2019-02-10T12:40:41.823Z,75.47
2019-02-10T12:41:41.789Z,74.90
2019-02-10T12:42:41.721Z,75.38
2019-02-10T12:43:41.657Z,76.04
2019-02-10T12:44:41.597Z,76.23
2019-02-10T12:45:41.551Z,75.67
2019-02-10T12:46:41.526Z,75.76
2019-02-10T12:47:41.446Z,75.47
2019-02-10T12:48:41.402Z,75.38
2019-02-10T12:49:41.337Z,75.85
2019-02-10T12:50:41.284Z,75.95
2019-02-10T12:51:41.252Z,75.47